sensor_id;sensor_type;location;lat;lon;timestamp;temperature;humidity
35085;SHT85;21267;51.032;6.998;2023-03-03T01:08:39;1.05;88.70
35085;SHT85;21267;51.032;6.998;2023-03-03T01:11:28;1.05;88.56
35085;SHT85;21267;51.032;6.998;2023-03-03T01:18:19;0.94;88.77
35085;SHT85;21267;51.032;6.998;2023-03-03T01:21:10;0.94;89.29
35085;SHT85;21267;51.032;6.998;2023-03-03T01:34:46;0.84;89.36
35085;SHT85;21267;51.032;6.998;2023-03-03T06:12:50;1.20;88.73
35085;SHT85;21267;51.032;6.998;2023-03-03T06:15:31;0.99;89.28
35085;SHT85;21267;51.032;6.998;2023-03-03T06:18:05;1.07;89.33
35085;SHT85;21267;51.032;6.998;2023-03-03T06:20:38;0.97;89.57
35085;SHT85;21267;51.032;6.998;2023-03-03T06:23:06;0.97;89.50
35085;SHT85;21267;51.032;6.998;2023-03-03T06:25:51;1.24;89.06
35085;SHT85;21267;51.032;6.998;2023-03-03T06:28:18;1.47;88.04
35085;SHT85;21267;51.032;6.998;2023-03-03T06:30:59;1.38;88.26
35085;SHT85;21267;51.032;6.998;2023-03-03T06:33:28;1.32;88.11
35085;SHT85;21267;51.032;6.998;2023-03-03T06:36:10;0.97;88.77
35085;SHT85;21267;51.032;6.998;2023-03-03T06:38:38;0.89;89.08
35085;SHT85;21267;51.032;6.998;2023-03-03T06:41:07;1.20;88.46
35085;SHT85;21267;51.032;6.998;2023-03-03T06:43:35;1.44;87.89
35085;SHT85;21267;51.032;6.998;2023-03-03T06:46:04;1.38;88.03
35085;SHT85;21267;51.032;6.998;2023-03-03T06:48:31;1.42;88.23
35085;SHT85;21267;51.032;6.998;2023-03-03T06:51:16;1.56;87.77
35085;SHT85;21267;51.032;6.998;2023-03-03T06:53:47;1.58;88.01
35085;SHT85;21267;51.032;6.998;2023-03-03T06:56:17;1.58;88.23
35085;SHT85;21267;51.032;6.998;2023-03-03T06:58:44;1.70;87.87
35085;SHT85;21267;51.032;6.998;2023-03-03T07:01:17;1.68;87.20
35085;SHT85;21267;51.032;6.998;2023-03-03T07:03:44;1.62;87.16
35085;SHT85;21267;51.032;6.998;2023-03-03T07:06:26;1.52;87.46
35085;SHT85;21267;51.032;6.998;2023-03-03T07:09:04;1.62;87.26
35085;SHT85;21267;51.032;6.998;2023-03-03T07:11:34;1.42;87.30
35085;SHT85;21267;51.032;6.998;2023-03-03T07:14:14;1.59;87.42
35085;SHT85;21267;51.032;6.998;2023-03-03T07:16:41;1.59;87.51
35085;SHT85;21267;51.032;6.998;2023-03-03T07:19:34;1.60;87.59
35085;SHT85;21267;51.032;6.998;2023-03-03T07:22:17;1.79;87.63
35085;SHT85;21267;51.032;6.998;2023-03-03T07:24:46;1.55;87.59
35085;SHT85;21267;51.032;6.998;2023-03-03T07:27:23;1.65;87.31
35085;SHT85;21267;51.032;6.998;2023-03-03T07:33:44;1.59;87.69
35085;SHT85;21267;51.032;6.998;2023-03-03T07:36:32;1.59;87.03
35085;SHT85;21267;51.032;6.998;2023-03-03T07:39:34;1.62;86.97
35085;SHT85;21267;51.032;6.998;2023-03-03T07:44:39;1.70;86.51
35085;SHT85;21267;51.032;6.998;2023-03-03T07:47:19;1.62;86.89
35085;SHT85;21267;51.032;6.998;2023-03-03T07:50:12;1.72;86.52
35085;SHT85;21267;51.032;6.998;2023-03-03T07:53:01;1.70;86.55
35085;SHT85;21267;51.032;6.998;2023-03-03T07:55:42;2.00;86.15
35085;SHT85;21267;51.032;6.998;2023-03-03T08:03:55;1.95;85.90
35085;SHT85;21267;51.032;6.998;2023-03-03T08:06:39;2.00;85.39
35085;SHT85;21267;51.032;6.998;2023-03-03T08:11:52;1.72;85.47
35085;SHT85;21267;51.032;6.998;2023-03-03T08:14:26;2.00;85.98
35085;SHT85;21267;51.032;6.998;2023-03-03T08:16:54;2.23;84.97
35085;SHT85;21267;51.032;6.998;2023-03-03T08:19:22;2.11;85.19
35085;SHT85;21267;51.032;6.998;2023-03-03T08:21:50;2.17;85.14
35085;SHT85;21267;51.032;6.998;2023-03-03T08:24:19;2.27;84.76
35085;SHT85;21267;51.032;6.998;2023-03-03T08:26:46;2.45;84.40
35085;SHT85;21267;51.032;6.998;2023-03-03T08:29:13;2.54;84.51
35085;SHT85;21267;51.032;6.998;2023-03-03T08:31:41;2.51;83.97
35085;SHT85;21267;51.032;6.998;2023-03-03T08:34:08;2.34;83.80
35085;SHT85;21267;51.032;6.998;2023-03-03T08:36:39;2.23;85.25
35085;SHT85;21267;51.032;6.998;2023-03-03T08:39:05;2.30;84.11
35085;SHT85;21267;51.032;6.998;2023-03-03T08:41:32;2.41;84.40
35085;SHT85;21267;51.032;6.998;2023-03-03T08:43:59;2.40;84.02
35085;SHT85;21267;51.032;6.998;2023-03-03T08:46:26;2.45;84.02
35085;SHT85;21267;51.032;6.998;2023-03-03T08:48:57;2.57;83.57
35085;SHT85;21267;51.032;6.998;2023-03-03T08:51:27;2.42;83.38
35085;SHT85;21267;51.032;6.998;2023-03-03T08:53:55;2.49;83.14
35085;SHT85;21267;51.032;6.998;2023-03-03T08:56:21;2.45;83.08
35085;SHT85;21267;51.032;6.998;2023-03-03T08:58:49;2.27;83.22
35085;SHT85;21267;51.032;6.998;2023-03-03T09:01:27;2.57;83.60
35085;SHT85;21267;51.032;6.998;2023-03-03T09:03:55;2.64;83.62
35085;SHT85;21267;51.032;6.998;2023-03-03T09:06:25;2.51;82.79
35085;SHT85;21267;51.032;6.998;2023-03-03T09:08:57;2.52;82.57
35085;SHT85;21267;51.032;6.998;2023-03-03T09:11:26;2.64;82.13
35085;SHT85;21267;51.032;6.998;2023-03-03T09:14:11;2.66;82.14
35085;SHT85;21267;51.032;6.998;2023-03-03T09:16:49;2.51;82.55
35085;SHT85;21267;51.032;6.998;2023-03-03T09:19:29;2.52;82.57
35085;SHT85;21267;51.032;6.998;2023-03-03T09:22:01;2.78;82.13
35085;SHT85;21267;51.032;6.998;2023-03-03T09:24:32;2.84;81.61
35085;SHT85;21267;51.032;6.998;2023-03-03T09:27:01;2.85;81.71
35085;SHT85;21267;51.032;6.998;2023-03-03T09:29:29;2.85;81.85
35085;SHT85;21267;51.032;6.998;2023-03-03T09:31:57;2.88;81.17
35085;SHT85;21267;51.032;6.998;2023-03-03T09:34:41;2.85;81.10
35085;SHT85;21267;51.032;6.998;2023-03-03T09:39:53;2.84;82.41
35085;SHT85;21267;51.032;6.998;2023-03-03T09:42:52;3.28;81.21
35085;SHT85;21267;51.032;6.998;2023-03-03T09:54:14;2.95;81.13
35085;SHT85;21267;51.032;6.998;2023-03-03T09:57:11;2.91;81.75
35085;SHT85;21267;51.032;6.998;2023-03-03T10:00:03;2.91;81.84
35085;SHT85;21267;51.032;6.998;2023-03-03T10:11:56;3.38;80.83
35085;SHT85;21267;51.032;6.998;2023-03-03T10:14:40;3.40;80.65
35085;SHT85;21267;51.032;6.998;2023-03-03T10:20:16;3.10;80.74
35085;SHT85;21267;51.032;6.998;2023-03-03T10:23:16;3.22;80.87
35085;SHT85;21267;51.032;6.998;2023-03-03T10:26:08;3.34;80.56
35085;SHT85;21267;51.032;6.998;2023-03-03T10:28:55;3.31;79.77
35085;SHT85;21267;51.032;6.998;2023-03-03T10:41:09;3.31;79.98
35085;SHT85;21267;51.032;6.998;2023-03-03T10:43:58;3.22;80.03
35085;SHT85;21267;51.032;6.998;2023-03-03T10:46:58;3.53;79.53
35085;SHT85;21267;51.032;6.998;2023-03-03T10:49:39;3.58;79.13
35085;SHT85;21267;51.032;6.998;2023-03-03T11:00:15;3.44;79.51
35085;SHT85;21267;51.032;6.998;2023-03-03T11:04:01;3.74;79.46
35085;SHT85;21267;51.032;6.998;2023-03-03T11:06:05;3.92;78.28
35085;SHT85;21267;51.032;6.998;2023-03-03T11:08:47;3.71;78.58
35085;SHT85;21267;51.032;6.998;2023-03-03T11:11:49;4.15;77.54
35085;SHT85;21267;51.032;6.998;2023-03-03T11:14:27;4.36;77.52
35085;SHT85;21267;51.032;6.998;2023-03-03T11:17:12;4.25;77.73
35085;SHT85;21267;51.032;6.998;2023-03-03T11:20:08;4.36;77.32
35085;SHT85;21267;51.032;6.998;2023-03-03T11:25:35;4.26;76.98
35085;SHT85;21267;51.032;6.998;2023-03-03T11:28:24;4.02;77.44
35085;SHT85;21267;51.032;6.998;2023-03-03T11:33:46;4.01;77.49
35085;SHT85;21267;51.032;6.998;2023-03-03T11:36:27;4.29;77.56
35085;SHT85;21267;51.032;6.998;2023-03-03T11:39:13;4.35;76.90
35085;SHT85;21267;51.032;6.998;2023-03-03T11:44:36;4.40;76.89
35085;SHT85;21267;51.032;6.998;2023-03-03T11:49:55;4.56;76.89
35085;SHT85;21267;51.032;6.998;2023-03-03T11:55:44;4.71;75.75
35085;SHT85;21267;51.032;6.998;2023-03-03T11:58:41;4.74;75.71
35085;SHT85;21267;51.032;6.998;2023-03-03T12:01:35;4.64;75.56
35085;SHT85;21267;51.032;6.998;2023-03-03T12:04:18;4.97;75.48
35085;SHT85;21267;51.032;6.998;2023-03-03T12:12:22;5.22;74.17
35085;SHT85;21267;51.032;6.998;2023-03-03T12:15:25;5.31;73.42
35085;SHT85;21267;51.032;6.998;2023-03-03T12:21:18;5.46;73.12
35085;SHT85;21267;51.032;6.998;2023-03-03T12:24:12;5.26;73.70
35085;SHT85;21267;51.032;6.998;2023-03-03T12:29:41;5.49;72.89
35085;SHT85;21267;51.032;6.998;2023-03-03T12:35:19;6.15;70.95
35085;SHT85;21267;51.032;6.998;2023-03-03T12:37:57;6.00;70.75
35085;SHT85;21267;51.032;6.998;2023-03-03T12:40:32;6.34;69.30
35085;SHT85;21267;51.032;6.998;2023-03-03T12:43:27;8.16;66.40
35085;SHT85;21267;51.032;6.998;2023-03-03T12:46:09;8.85;64.02
35085;SHT85;21267;51.032;6.998;2023-03-03T12:48:42;8.09;63.64
35085;SHT85;21267;51.032;6.998;2023-03-03T12:59:51;6.69;68.85
35085;SHT85;21267;51.032;6.998;2023-03-03T13:02:56;5.97;70.89
35085;SHT85;21267;51.032;6.998;2023-03-03T13:06:05;5.94;70.79
35085;SHT85;21267;51.032;6.998;2023-03-03T13:08:41;6.05;70.93
35085;SHT85;21267;51.032;6.998;2023-03-03T13:11:29;6.14;69.95
35085;SHT85;21267;51.032;6.998;2023-03-03T13:17:47;6.83;69.29
35085;SHT85;21267;51.032;6.998;2023-03-03T13:20:46;6.76;68.69
35085;SHT85;21267;51.032;6.998;2023-03-03T13:31:36;8.07;64.84
35085;SHT85;21267;51.032;6.998;2023-03-03T13:37:31;7.14;67.52
35085;SHT85;21267;51.032;6.998;2023-03-03T13:40:16;7.25;67.21
35085;SHT85;21267;51.032;6.998;2023-03-03T13:43:03;7.66;65.98
35085;SHT85;21267;51.032;6.998;2023-03-03T13:46:01;7.83;65.89
35085;SHT85;21267;51.032;6.998;2023-03-03T13:48:51;7.92;65.15
35085;SHT85;21267;51.032;6.998;2023-03-03T13:51:42;8.06;65.19
35085;SHT85;21267;51.032;6.998;2023-03-03T14:05:48;7.94;65.09
35085;SHT85;21267;51.032;6.998;2023-03-03T14:11:22;8.13;64.95
35085;SHT85;21267;51.032;6.998;2023-03-03T14:19:23;7.78;64.71
35085;SHT85;21267;51.032;6.998;2023-03-03T14:25:09;8.17;64.37
35085;SHT85;21267;51.032;6.998;2023-03-03T14:28:00;7.90;64.71
35085;SHT85;21267;51.032;6.998;2023-03-03T14:30:42;8.07;64.34
35085;SHT85;21267;51.032;6.998;2023-03-03T14:44:06;9.15;61.74
35085;SHT85;21267;51.032;6.998;2023-03-03T14:46:31;8.76;62.22
35085;SHT85;21267;51.032;6.998;2023-03-03T14:49:01;8.55;63.06
35085;SHT85;21267;51.032;6.998;2023-03-03T14:51:45;8.76;62.48
35085;SHT85;21267;51.032;6.998;2023-03-03T14:54:52;9.46;61.46
35085;SHT85;21267;51.032;6.998;2023-03-03T15:21:44;8.26;64.14
35085;SHT85;21267;51.032;6.998;2023-03-03T18:58:41;3.10;81.66
35085;SHT85;21267;51.032;6.998;2023-03-03T19:01:38;3.06;81.86
35085;SHT85;21267;51.032;6.998;2023-03-03T19:09:11;2.98;83.03
35085;SHT85;21267;51.032;6.998;2023-03-03T19:11:57;2.88;83.26
35085;SHT85;21267;51.032;6.998;2023-03-03T19:18:02;2.77;83.26
35085;SHT85;21267;51.032;6.998;2023-03-03T19:20:44;2.75;82.90
35085;SHT85;21267;51.032;6.998;2023-03-03T19:23:57;2.68;83.45
35085;SHT85;21267;51.032;6.998;2023-03-03T19:26:36;2.82;83.18
35085;SHT85;21267;51.032;6.998;2023-03-03T19:34:56;3.07;83.14
35085;SHT85;21267;51.032;6.998;2023-03-03T19:37:44;3.17;83.09
35085;SHT85;21267;51.032;6.998;2023-03-03T19:40:37;3.16;83.00
35085;SHT85;21267;51.032;6.998;2023-03-03T19:46:18;3.46;82.42
35085;SHT85;21267;51.032;6.998;2023-03-03T19:49:04;3.41;82.46
35085;SHT85;21267;51.032;6.998;2023-03-03T19:52:43;3.24;82.45
35085;SHT85;21267;51.032;6.998;2023-03-03T19:55:14;3.05;82.91
35085;SHT85;21267;51.032;6.998;2023-03-03T20:01:06;2.99;83.24
35085;SHT85;21267;51.032;6.998;2023-03-03T20:09:28;3.16;83.02
35085;SHT85;21267;51.032;6.998;2023-03-03T20:14:48;3.44;82.42
35085;SHT85;21267;51.032;6.998;2023-03-03T20:23:47;2.98;83.37
35085;SHT85;21267;51.032;6.998;2023-03-03T20:26:49;2.96;83.87
35085;SHT85;21267;51.032;6.998;2023-03-03T20:38:31;3.24;82.58
35085;SHT85;21267;51.032;6.998;2023-03-03T20:46:55;3.19;82.19
35085;SHT85;21267;51.032;6.998;2023-03-03T20:52:29;3.05;82.50
35085;SHT85;21267;51.032;6.998;2023-03-03T20:55:27;2.84;83.12
35085;SHT85;21267;51.032;6.998;2023-03-03T21:01:13;2.91;83.20
35085;SHT85;21267;51.032;6.998;2023-03-03T21:03:44;3.22;82.04
35085;SHT85;21267;51.032;6.998;2023-03-03T21:06:16;3.24;82.28
35085;SHT85;21267;51.032;6.998;2023-03-03T21:11:21;3.05;83.08
35085;SHT85;21267;51.032;6.998;2023-03-03T21:13:52;3.00;82.88
35085;SHT85;21267;51.032;6.998;2023-03-03T21:21:51;3.05;82.87
35085;SHT85;21267;51.032;6.998;2023-03-03T21:24:18;3.28;82.52
35085;SHT85;21267;51.032;6.998;2023-03-03T21:32:03;3.20;81.88
35085;SHT85;21267;51.032;6.998;2023-03-03T21:34:38;3.33;81.93
35085;SHT85;21267;51.032;6.998;2023-03-03T21:37:11;3.16;82.18
35085;SHT85;21267;51.032;6.998;2023-03-03T21:39:44;3.26;82.00
35085;SHT85;21267;51.032;6.998;2023-03-03T21:42:17;3.20;82.08
35085;SHT85;21267;51.032;6.998;2023-03-03T21:44:54;3.23;81.94
35085;SHT85;21267;51.032;6.998;2023-03-03T21:47:22;2.88;83.41
35085;SHT85;21267;51.032;6.998;2023-03-03T21:49:50;3.17;82.52
35085;SHT85;21267;51.032;6.998;2023-03-03T21:52:19;3.17;82.75
35085;SHT85;21267;51.032;6.998;2023-03-03T21:54:48;3.03;83.10
35085;SHT85;21267;51.032;6.998;2023-03-03T21:57:15;2.93;83.35
35085;SHT85;21267;51.032;6.998;2023-03-03T21:59:42;2.99;83.72
35085;SHT85;21267;51.032;6.998;2023-03-03T22:02:09;3.00;83.29
35085;SHT85;21267;51.032;6.998;2023-03-03T22:04:36;3.02;83.20
35085;SHT85;21267;51.032;6.998;2023-03-03T22:07:07;3.19;83.43
35085;SHT85;21267;51.032;6.998;2023-03-03T22:09:34;3.00;83.65
35085;SHT85;21267;51.032;6.998;2023-03-03T22:12:04;3.09;83.25
35085;SHT85;21267;51.032;6.998;2023-03-03T22:14:32;3.03;83.48
35085;SHT85;21267;51.032;6.998;2023-03-03T22:17:07;3.00;83.93
35085;SHT85;21267;51.032;6.998;2023-03-03T22:19:39;3.00;83.68
35085;SHT85;21267;51.032;6.998;2023-03-03T22:22:07;3.07;83.76
35085;SHT85;21267;51.032;6.998;2023-03-03T22:24:52;2.98;83.96
35085;SHT85;21267;51.032;6.998;2023-03-03T22:27:37;2.91;84.71
35085;SHT85;21267;51.032;6.998;2023-03-03T22:30:16;3.06;83.99
35085;SHT85;21267;51.032;6.998;2023-03-03T22:32:57;3.15;83.76
35085;SHT85;21267;51.032;6.998;2023-03-03T22:35:27;3.28;83.32
35085;SHT85;21267;51.032;6.998;2023-03-03T22:38:10;3.05;84.38
35085;SHT85;21267;51.032;6.998;2023-03-03T22:40:41;2.77;85.17
35085;SHT85;21267;51.032;6.998;2023-03-03T22:43:25;2.91;84.75
35085;SHT85;21267;51.032;6.998;2023-03-03T22:46:09;3.13;83.89
35085;SHT85;21267;51.032;6.998;2023-03-03T22:48:45;3.09;83.94
35085;SHT85;21267;51.032;6.998;2023-03-03T22:54:12;3.07;84.26
35085;SHT85;21267;51.032;6.998;2023-03-03T22:56:50;3.17;83.76
35085;SHT85;21267;51.032;6.998;2023-03-03T22:59:34;3.03;84.41
35085;SHT85;21267;51.032;6.998;2023-03-03T23:02:13;3.09;84.53
35085;SHT85;21267;51.032;6.998;2023-03-03T23:04:44;3.26;83.97
35085;SHT85;21267;51.032;6.998;2023-03-03T23:07:18;3.38;83.33
35085;SHT85;21267;51.032;6.998;2023-03-03T23:09:51;3.28;83.59
35085;SHT85;21267;51.032;6.998;2023-03-03T23:12:24;3.16;84.47
35085;SHT85;21267;51.032;6.998;2023-03-03T23:14:59;3.34;83.85
35085;SHT85;21267;51.032;6.998;2023-03-03T23:17:31;3.48;83.35
35085;SHT85;21267;51.032;6.998;2023-03-03T23:20:35;3.22;83.91
35085;SHT85;21267;51.032;6.998;2023-03-03T23:23:12;3.31;84.03
35085;SHT85;21267;51.032;6.998;2023-03-03T23:25:53;3.16;84.40
35085;SHT85;21267;51.032;6.998;2023-03-03T23:28:26;3.16;84.51
35085;SHT85;21267;51.032;6.998;2023-03-03T23:31:05;2.96;84.74
35085;SHT85;21267;51.032;6.998;2023-03-03T23:33:38;2.96;84.91
35085;SHT85;21267;51.032;6.998;2023-03-03T23:36:29;3.19;83.94
35085;SHT85;21267;51.032;6.998;2023-03-03T23:39:37;3.07;84.24
35085;SHT85;21267;51.032;6.998;2023-03-03T23:42:31;3.17;83.38
35085;SHT85;21267;51.032;6.998;2023-03-03T23:45:25;2.98;84.53
35085;SHT85;21267;51.032;6.998;2023-03-03T23:48:11;3.15;84.04
35085;SHT85;21267;51.032;6.998;2023-03-03T23:50:58;3.22;83.51
35085;SHT85;21267;51.032;6.998;2023-03-03T23:54:05;3.02;84.86
35085;SHT85;21267;51.032;6.998;2023-03-03T23:56:57;3.16;84.06
35085;SHT85;21267;51.032;6.998;2023-03-03T23:59:28;3.20;83.89
